sensor_id;sensor_type;location;lat;lon;timestamp;temperature;humidity
9810;DHT22;4944;52.514;13.192;2022-10-18T00:01:18;17.90;99.90
9810;DHT22;4944;52.514;13.192;2022-10-18T00:03:45;17.90;99.90
9810;DHT22;4944;52.514;13.192;2022-10-18T00:06:13;17.90;99.90
9810;DHT22;4944;52.514;13.192;2022-10-18T00:08:40;17.90;99.90
9810;DHT22;4944;52.514;13.192;2022-10-18T00:11:07;17.90;99.90
9810;DHT22;4944;52.514;13.192;2022-10-18T00:13:33;18.00;99.90
9810;DHT22;4944;52.514;13.192;2022-10-18T00:16:02;17.90;99.90
9810;DHT22;4944;52.514;13.192;2022-10-18T00:18:30;17.90;99.90
9810;DHT22;4944;52.514;13.192;2022-10-18T00:20:58;18.00;99.90
9810;DHT22;4944;52.514;13.192;2022-10-18T00:23:27;17.90;99.90
9810;DHT22;4944;52.514;13.192;2022-10-18T00:25:59;17.90;99.90
9810;DHT22;4944;52.514;13.192;2022-10-18T00:28:26;17.90;99.90
9810;DHT22;4944;52.514;13.192;2022-10-18T00:30:53;17.90;99.90
9810;DHT22;4944;52.514;13.192;2022-10-18T00:33:19;17.90;99.90
9810;DHT22;4944;52.514;13.192;2022-10-18T00:35:46;17.90;99.90
9810;DHT22;4944;52.514;13.192;2022-10-18T00:38:13;17.90;99.90
9810;DHT22;4944;52.514;13.192;2022-10-18T00:40:41;17.80;99.90
9810;DHT22;4944;52.514;13.192;2022-10-18T00:43:10;17.80;99.90
9810;DHT22;4944;52.514;13.192;2022-10-18T00:45:40;17.80;99.90
9810;DHT22;4944;52.514;13.192;2022-10-18T00:48:07;17.80;99.90
9810;DHT22;4944;52.514;13.192;2022-10-18T00:50:34;17.80;99.90
9810;DHT22;4944;52.514;13.192;2022-10-18T00:53:05;17.80;99.90
9810;DHT22;4944;52.514;13.192;2022-10-18T00:55:33;17.80;99.90
9810;DHT22;4944;52.514;13.192;2022-10-18T00:58:03;17.80;99.90
9810;DHT22;4944;52.514;13.192;2022-10-18T01:00:29;17.80;99.90
9810;DHT22;4944;52.514;13.192;2022-10-18T01:02:57;17.80;99.90
9810;DHT22;4944;52.514;13.192;2022-10-18T01:05:25;17.80;99.90
9810;DHT22;4944;52.514;13.192;2022-10-18T01:08:22;17.80;99.90
9810;DHT22;4944;52.514;13.192;2022-10-18T01:11:01;17.70;99.90
9810;DHT22;4944;52.514;13.192;2022-10-18T01:13:42;17.70;99.90
9810;DHT22;4944;52.514;13.192;2022-10-18T01:16:16;17.80;99.90
9810;DHT22;4944;52.514;13.192;2022-10-18T01:18:47;17.80;99.90
9810;DHT22;4944;52.514;13.192;2022-10-18T01:21:27;17.80;99.90
9810;DHT22;4944;52.514;13.192;2022-10-18T01:24:23;17.70;99.90
9810;DHT22;4944;52.514;13.192;2022-10-18T01:27:08;17.80;99.90
9810;DHT22;4944;52.514;13.192;2022-10-18T01:29:49;17.70;99.90
9810;DHT22;4944;52.514;13.192;2022-10-18T01:32:22;17.70;99.90
9810;DHT22;4944;52.514;13.192;2022-10-18T01:34:51;17.80;99.90
9810;DHT22;4944;52.514;13.192;2022-10-18T01:37:21;17.80;99.90
9810;DHT22;4944;52.514;13.192;2022-10-18T01:39:53;17.80;99.90
9810;DHT22;4944;52.514;13.192;2022-10-18T01:42:21;17.80;99.90
9810;DHT22;4944;52.514;13.192;2022-10-18T01:44:50;17.80;99.90
9810;DHT22;4944;52.514;13.192;2022-10-18T01:47:20;17.80;99.90
9810;DHT22;4944;52.514;13.192;2022-10-18T01:49:47;17.70;99.90
9810;DHT22;4944;52.514;13.192;2022-10-18T01:52:14;17.70;99.90
9810;DHT22;4944;52.514;13.192;2022-10-18T01:54:45;17.70;99.90
9810;DHT22;4944;52.514;13.192;2022-10-18T01:57:19;17.70;99.90
9810;DHT22;4944;52.514;13.192;2022-10-18T01:59:53;17.70;99.90
9810;DHT22;4944;52.514;13.192;2022-10-18T02:02:34;17.70;99.90
9810;DHT22;4944;52.514;13.192;2022-10-18T02:05:11;17.70;99.90
9810;DHT22;4944;52.514;13.192;2022-10-18T02:07:41;17.70;99.90
9810;DHT22;4944;52.514;13.192;2022-10-18T02:10:13;17.70;99.90
9810;DHT22;4944;52.514;13.192;2022-10-18T02:12:42;17.70;99.90
9810;DHT22;4944;52.514;13.192;2022-10-18T02:15:14;17.70;99.90
9810;DHT22;4944;52.514;13.192;2022-10-18T02:17:44;17.70;99.90
9810;DHT22;4944;52.514;13.192;2022-10-18T02:20:12;17.70;99.90
9810;DHT22;4944;52.514;13.192;2022-10-18T02:22:41;17.70;99.90
9810;DHT22;4944;52.514;13.192;2022-10-18T02:25:15;17.80;99.90
9810;DHT22;4944;52.514;13.192;2022-10-18T02:27:42;17.80;99.90
9810;DHT22;4944;52.514;13.192;2022-10-18T02:30:09;17.80;99.90
9810;DHT22;4944;52.514;13.192;2022-10-18T02:32:38;17.80;99.90
9810;DHT22;4944;52.514;13.192;2022-10-18T02:35:12;17.80;99.90
9810;DHT22;4944;52.514;13.192;2022-10-18T02:37:40;17.80;99.90
9810;DHT22;4944;52.514;13.192;2022-10-18T02:40:09;17.80;99.90
9810;DHT22;4944;52.514;13.192;2022-10-18T02:42:37;17.80;99.90
9810;DHT22;4944;52.514;13.192;2022-10-18T02:45:05;17.80;99.90
9810;DHT22;4944;52.514;13.192;2022-10-18T02:47:32;17.80;99.90
9810;DHT22;4944;52.514;13.192;2022-10-18T02:49:59;17.80;99.90
9810;DHT22;4944;52.514;13.192;2022-10-18T02:52:27;17.70;99.90
9810;DHT22;4944;52.514;13.192;2022-10-18T02:54:53;17.80;99.90
9810;DHT22;4944;52.514;13.192;2022-10-18T02:57:20;17.80;99.90
9810;DHT22;4944;52.514;13.192;2022-10-18T02:59:47;17.70;99.90
9810;DHT22;4944;52.514;13.192;2022-10-18T03:02:14;17.80;99.90
9810;DHT22;4944;52.514;13.192;2022-10-18T03:04:40;17.80;99.90
9810;DHT22;4944;52.514;13.192;2022-10-18T03:07:07;17.70;99.90
9810;DHT22;4944;52.514;13.192;2022-10-18T03:09:35;17.80;99.90
9810;DHT22;4944;52.514;13.192;2022-10-18T03:12:02;17.70;99.90
9810;DHT22;4944;52.514;13.192;2022-10-18T03:14:29;17.70;99.90
9810;DHT22;4944;52.514;13.192;2022-10-18T03:16:56;17.60;99.90
9810;DHT22;4944;52.514;13.192;2022-10-18T03:19:23;17.50;99.90
9810;DHT22;4944;52.514;13.192;2022-10-18T03:21:49;17.50;99.90
9810;DHT22;4944;52.514;13.192;2022-10-18T03:24:16;17.50;99.90
9810;DHT22;4944;52.514;13.192;2022-10-18T03:26:44;17.50;99.90
9810;DHT22;4944;52.514;13.192;2022-10-18T03:29:11;17.50;99.90
9810;DHT22;4944;52.514;13.192;2022-10-18T03:31:38;17.50;99.90
9810;DHT22;4944;52.514;13.192;2022-10-18T03:34:05;17.60;99.90
9810;DHT22;4944;52.514;13.192;2022-10-18T03:36:31;17.60;99.90
9810;DHT22;4944;52.514;13.192;2022-10-18T03:38:59;17.70;99.90
9810;DHT22;4944;52.514;13.192;2022-10-18T03:41:26;17.70;99.90
9810;DHT22;4944;52.514;13.192;2022-10-18T03:43:54;17.70;99.90
9810;DHT22;4944;52.514;13.192;2022-10-18T03:46:21;17.80;99.90
9810;DHT22;4944;52.514;13.192;2022-10-18T03:48:48;17.70;99.90
9810;DHT22;4944;52.514;13.192;2022-10-18T03:51:14;17.70;99.90
9810;DHT22;4944;52.514;13.192;2022-10-18T03:53:41;17.70;99.90
9810;DHT22;4944;52.514;13.192;2022-10-18T03:56:08;17.80;99.90
9810;DHT22;4944;52.514;13.192;2022-10-18T03:58:35;17.80;99.90
9810;DHT22;4944;52.514;13.192;2022-10-18T04:01:03;17.80;99.90
9810;DHT22;4944;52.514;13.192;2022-10-18T04:03:29;17.80;99.90
9810;DHT22;4944;52.514;13.192;2022-10-18T04:05:56;17.70;99.90
9810;DHT22;4944;52.514;13.192;2022-10-18T04:08:25;17.70;99.90
9810;DHT22;4944;52.514;13.192;2022-10-18T04:10:51;17.60;99.90
9810;DHT22;4944;52.514;13.192;2022-10-18T04:13:18;17.60;99.90
9810;DHT22;4944;52.514;13.192;2022-10-18T04:15:45;17.60;99.90
9810;DHT22;4944;52.514;13.192;2022-10-18T04:18:13;17.50;99.90
9810;DHT22;4944;52.514;13.192;2022-10-18T04:20:40;17.50;99.90
9810;DHT22;4944;52.514;13.192;2022-10-18T04:23:06;17.50;99.90
9810;DHT22;4944;52.514;13.192;2022-10-18T04:25:33;17.50;99.90
9810;DHT22;4944;52.514;13.192;2022-10-18T04:28:00;17.50;99.90
9810;DHT22;4944;52.514;13.192;2022-10-18T04:30:29;17.50;99.90
9810;DHT22;4944;52.514;13.192;2022-10-18T04:32:55;17.50;99.90
9810;DHT22;4944;52.514;13.192;2022-10-18T04:35:23;17.60;99.90
9810;DHT22;4944;52.514;13.192;2022-10-18T04:37:52;17.50;99.90
9810;DHT22;4944;52.514;13.192;2022-10-18T04:40:19;17.50;99.90
9810;DHT22;4944;52.514;13.192;2022-10-18T04:42:46;17.50;99.90
9810;DHT22;4944;52.514;13.192;2022-10-18T04:45:12;17.50;99.90
9810;DHT22;4944;52.514;13.192;2022-10-18T04:47:39;17.50;99.90
9810;DHT22;4944;52.514;13.192;2022-10-18T04:50:06;17.50;99.90
9810;DHT22;4944;52.514;13.192;2022-10-18T04:52:35;17.50;99.90
9810;DHT22;4944;52.514;13.192;2022-10-18T04:55:03;17.50;99.90
9810;DHT22;4944;52.514;13.192;2022-10-18T04:57:30;17.50;99.90
9810;DHT22;4944;52.514;13.192;2022-10-18T04:59:57;17.50;99.90
9810;DHT22;4944;52.514;13.192;2022-10-18T05:02:24;17.40;99.90
9810;DHT22;4944;52.514;13.192;2022-10-18T05:04:50;17.50;99.90
9810;DHT22;4944;52.514;13.192;2022-10-18T05:07:17;17.40;99.90
9810;DHT22;4944;52.514;13.192;2022-10-18T05:09:45;17.40;99.90
9810;DHT22;4944;52.514;13.192;2022-10-18T05:12:12;17.40;99.90
9810;DHT22;4944;52.514;13.192;2022-10-18T05:14:39;17.40;99.90
9810;DHT22;4944;52.514;13.192;2022-10-18T05:17:05;17.40;99.90
9810;DHT22;4944;52.514;13.192;2022-10-18T05:19:32;17.40;99.90
9810;DHT22;4944;52.514;13.192;2022-10-18T05:21:59;17.40;99.90
9810;DHT22;4944;52.514;13.192;2022-10-18T05:24:26;17.40;99.90
9810;DHT22;4944;52.514;13.192;2022-10-18T05:26:54;17.40;99.90
9810;DHT22;4944;52.514;13.192;2022-10-18T05:29:21;17.40;99.90
9810;DHT22;4944;52.514;13.192;2022-10-18T05:31:47;17.40;99.90
9810;DHT22;4944;52.514;13.192;2022-10-18T05:34:14;17.30;99.90
9810;DHT22;4944;52.514;13.192;2022-10-18T05:36:41;17.30;99.90
9810;DHT22;4944;52.514;13.192;2022-10-18T05:39:08;17.30;99.90
9810;DHT22;4944;52.514;13.192;2022-10-18T05:41:35;17.30;99.90
9810;DHT22;4944;52.514;13.192;2022-10-18T05:44:04;17.30;99.90
9810;DHT22;4944;52.514;13.192;2022-10-18T05:46:31;17.20;99.90
9810;DHT22;4944;52.514;13.192;2022-10-18T05:48:58;17.30;99.90
9810;DHT22;4944;52.514;13.192;2022-10-18T05:51:25;17.20;99.90
9810;DHT22;4944;52.514;13.192;2022-10-18T05:53:51;17.20;99.90
9810;DHT22;4944;52.514;13.192;2022-10-18T05:56:19;17.20;99.90
9810;DHT22;4944;52.514;13.192;2022-10-18T05:58:49;17.20;99.90
9810;DHT22;4944;52.514;13.192;2022-10-18T06:01:17;17.20;99.90
9810;DHT22;4944;52.514;13.192;2022-10-18T06:03:45;17.20;99.90
9810;DHT22;4944;52.514;13.192;2022-10-18T06:06:13;17.20;99.90
9810;DHT22;4944;52.514;13.192;2022-10-18T06:08:41;17.20;99.90
9810;DHT22;4944;52.514;13.192;2022-10-18T06:11:09;17.30;99.90
9810;DHT22;4944;52.514;13.192;2022-10-18T06:13:39;17.20;99.90
9810;DHT22;4944;52.514;13.192;2022-10-18T06:16:06;17.20;99.90
9810;DHT22;4944;52.514;13.192;2022-10-18T06:18:35;17.20;99.90
9810;DHT22;4944;52.514;13.192;2022-10-18T06:21:02;17.20;99.90
9810;DHT22;4944;52.514;13.192;2022-10-18T06:23:28;17.20;99.90
9810;DHT22;4944;52.514;13.192;2022-10-18T06:25:57;17.20;99.90
9810;DHT22;4944;52.514;13.192;2022-10-18T06:28:25;17.20;99.90
9810;DHT22;4944;52.514;13.192;2022-10-18T06:30:51;17.10;99.90
9810;DHT22;4944;52.514;13.192;2022-10-18T06:33:18;17.10;99.90
9810;DHT22;4944;52.514;13.192;2022-10-18T06:35:54;17.00;99.90
9810;DHT22;4944;52.514;13.192;2022-10-18T06:38:21;17.10;99.90
9810;DHT22;4944;52.514;13.192;2022-10-18T06:40:48;17.10;99.90
9810;DHT22;4944;52.514;13.192;2022-10-18T06:43:15;17.10;99.90
9810;DHT22;4944;52.514;13.192;2022-10-18T06:45:42;17.10;99.90
9810;DHT22;4944;52.514;13.192;2022-10-18T06:48:08;17.00;99.90
9810;DHT22;4944;52.514;13.192;2022-10-18T06:50:35;17.00;99.90
9810;DHT22;4944;52.514;13.192;2022-10-18T06:53:03;17.10;99.90
9810;DHT22;4944;52.514;13.192;2022-10-18T06:55:33;17.10;99.90
9810;DHT22;4944;52.514;13.192;2022-10-18T06:58:00;17.00;99.90
9810;DHT22;4944;52.514;13.192;2022-10-18T07:00:27;17.00;99.90
9810;DHT22;4944;52.514;13.192;2022-10-18T07:02:53;17.10;99.90
9810;DHT22;4944;52.514;13.192;2022-10-18T07:05:20;17.00;99.90
9810;DHT22;4944;52.514;13.192;2022-10-18T07:07:47;17.00;99.90
9810;DHT22;4944;52.514;13.192;2022-10-18T07:10:15;17.00;99.90
9810;DHT22;4944;52.514;13.192;2022-10-18T07:12:42;17.10;99.90
9810;DHT22;4944;52.514;13.192;2022-10-18T07:15:09;17.10;99.90
9810;DHT22;4944;52.514;13.192;2022-10-18T07:17:36;17.10;99.90
9810;DHT22;4944;52.514;13.192;2022-10-18T07:20:03;17.10;99.90
9810;DHT22;4944;52.514;13.192;2022-10-18T07:22:30;17.10;99.90
9810;DHT22;4944;52.514;13.192;2022-10-18T07:24:58;17.10;99.90
9810;DHT22;4944;52.514;13.192;2022-10-18T07:27:26;17.00;99.90
9810;DHT22;4944;52.514;13.192;2022-10-18T07:29:53;17.00;99.90
9810;DHT22;4944;52.514;13.192;2022-10-18T07:32:22;16.90;99.90
9810;DHT22;4944;52.514;13.192;2022-10-18T07:34:49;16.80;99.90
9810;DHT22;4944;52.514;13.192;2022-10-18T07:37:16;16.70;99.90
9810;DHT22;4944;52.514;13.192;2022-10-18T07:39:42;16.70;99.90
9810;DHT22;4944;52.514;13.192;2022-10-18T07:42:09;16.60;99.90
9810;DHT22;4944;52.514;13.192;2022-10-18T07:44:38;16.60;99.90
9810;DHT22;4944;52.514;13.192;2022-10-18T07:47:04;16.60;99.90
9810;DHT22;4944;52.514;13.192;2022-10-18T07:49:31;16.70;99.90
9810;DHT22;4944;52.514;13.192;2022-10-18T07:51:58;16.70;99.90
9810;DHT22;4944;52.514;13.192;2022-10-18T07:54:25;16.70;99.90
9810;DHT22;4944;52.514;13.192;2022-10-18T07:56:51;16.80;99.90
9810;DHT22;4944;52.514;13.192;2022-10-18T07:59:18;16.80;99.90
9810;DHT22;4944;52.514;13.192;2022-10-18T08:01:46;16.80;99.90
9810;DHT22;4944;52.514;13.192;2022-10-18T08:04:13;16.90;99.90
9810;DHT22;4944;52.514;13.192;2022-10-18T08:06:40;16.90;99.90
9810;DHT22;4944;52.514;13.192;2022-10-18T08:09:06;16.90;99.90
9810;DHT22;4944;52.514;13.192;2022-10-18T08:11:33;16.90;99.90
9810;DHT22;4944;52.514;13.192;2022-10-18T08:14:00;17.00;99.90
9810;DHT22;4944;52.514;13.192;2022-10-18T08:16:27;17.00;99.90
9810;DHT22;4944;52.514;13.192;2022-10-18T08:18:57;17.00;99.90
9810;DHT22;4944;52.514;13.192;2022-10-18T08:21:24;17.00;99.90
9810;DHT22;4944;52.514;13.192;2022-10-18T08:23:51;17.00;99.90
9810;DHT22;4944;52.514;13.192;2022-10-18T08:26:20;17.00;99.90
9810;DHT22;4944;52.514;13.192;2022-10-18T08:28:48;17.00;99.90
9810;DHT22;4944;52.514;13.192;2022-10-18T08:31:17;17.00;99.90
9810;DHT22;4944;52.514;13.192;2022-10-18T08:33:44;17.00;99.90
9810;DHT22;4944;52.514;13.192;2022-10-18T08:36:14;17.00;99.90
9810;DHT22;4944;52.514;13.192;2022-10-18T08:38:42;17.00;99.90
9810;DHT22;4944;52.514;13.192;2022-10-18T08:41:30;17.00;99.90
9810;DHT22;4944;52.514;13.192;2022-10-18T08:44:05;17.00;99.90
9810;DHT22;4944;52.514;13.192;2022-10-18T08:46:34;17.00;99.90
9810;DHT22;4944;52.514;13.192;2022-10-18T08:49:02;16.90;99.90
9810;DHT22;4944;52.514;13.192;2022-10-18T08:51:37;16.80;99.90
9810;DHT22;4944;52.514;13.192;2022-10-18T08:54:09;16.70;99.90
9810;DHT22;4944;52.514;13.192;2022-10-18T08:56:38;16.70;99.90
9810;DHT22;4944;52.514;13.192;2022-10-18T08:59:09;16.80;99.90
9810;DHT22;4944;52.514;13.192;2022-10-18T09:01:42;16.60;99.90
9810;DHT22;4944;52.514;13.192;2022-10-18T09:04:24;16.60;99.90
9810;DHT22;4944;52.514;13.192;2022-10-18T09:07:07;16.60;99.90
9810;DHT22;4944;52.514;13.192;2022-10-18T09:09:41;16.60;99.90
9810;DHT22;4944;52.514;13.192;2022-10-18T09:12:26;16.50;99.90
9810;DHT22;4944;52.514;13.192;2022-10-18T09:15:07;16.40;99.90
9810;DHT22;4944;52.514;13.192;2022-10-18T09:17:46;16.40;99.90
9810;DHT22;4944;52.514;13.192;2022-10-18T09:20:21;16.50;99.90
9810;DHT22;4944;52.514;13.192;2022-10-18T09:22:55;16.60;99.90
9810;DHT22;4944;52.514;13.192;2022-10-18T09:25:23;16.50;99.90
9810;DHT22;4944;52.514;13.192;2022-10-18T09:27:55;16.40;99.90
9810;DHT22;4944;52.514;13.192;2022-10-18T09:30:42;16.40;99.90
9810;DHT22;4944;52.514;13.192;2022-10-18T09:33:23;16.40;99.90
9810;DHT22;4944;52.514;13.192;2022-10-18T09:35:53;16.40;99.90
9810;DHT22;4944;52.514;13.192;2022-10-18T09:38:25;16.40;99.90
9810;DHT22;4944;52.514;13.192;2022-10-18T09:40:57;16.40;99.90
9810;DHT22;4944;52.514;13.192;2022-10-18T09:43:34;16.40;99.90
9810;DHT22;4944;52.514;13.192;2022-10-18T09:46:04;16.40;99.90
9810;DHT22;4944;52.514;13.192;2022-10-18T09:48:35;16.50;99.90
9810;DHT22;4944;52.514;13.192;2022-10-18T09:51:06;16.50;99.90
9810;DHT22;4944;52.514;13.192;2022-10-18T09:53:41;16.50;99.90
9810;DHT22;4944;52.514;13.192;2022-10-18T09:56:11;16.50;99.90
9810;DHT22;4944;52.514;13.192;2022-10-18T09:58:42;16.50;99.90
9810;DHT22;4944;52.514;13.192;2022-10-18T10:01:12;16.50;99.90
9810;DHT22;4944;52.514;13.192;2022-10-18T10:03:40;16.50;99.90
9810;DHT22;4944;52.514;13.192;2022-10-18T10:06:22;16.40;99.90
9810;DHT22;4944;52.514;13.192;2022-10-18T10:08:57;16.40;99.90
9810;DHT22;4944;52.514;13.192;2022-10-18T10:11:29;16.40;99.90
9810;DHT22;4944;52.514;13.192;2022-10-18T10:13:57;16.40;99.90
9810;DHT22;4944;52.514;13.192;2022-10-18T10:16:29;16.40;99.90
9810;DHT22;4944;52.514;13.192;2022-10-18T10:18:56;16.40;99.90
9810;DHT22;4944;52.514;13.192;2022-10-18T10:21:23;16.30;99.90
9810;DHT22;4944;52.514;13.192;2022-10-18T10:23:52;16.30;99.90
9810;DHT22;4944;52.514;13.192;2022-10-18T10:26:23;16.30;99.90
9810;DHT22;4944;52.514;13.192;2022-10-18T10:28:50;16.30;99.90
9810;DHT22;4944;52.514;13.192;2022-10-18T10:31:24;16.30;99.90
9810;DHT22;4944;52.514;13.192;2022-10-18T10:33:58;16.30;99.90
9810;DHT22;4944;52.514;13.192;2022-10-18T10:36:26;16.40;99.90
9810;DHT22;4944;52.514;13.192;2022-10-18T10:39:03;16.40;99.90
9810;DHT22;4944;52.514;13.192;2022-10-18T10:41:31;16.50;99.90
9810;DHT22;4944;52.514;13.192;2022-10-18T10:44:01;16.50;99.90
9810;DHT22;4944;52.514;13.192;2022-10-18T10:46:33;16.50;99.90
9810;DHT22;4944;52.514;13.192;2022-10-18T10:49:00;16.60;99.90
9810;DHT22;4944;52.514;13.192;2022-10-18T10:51:29;16.60;99.90
9810;DHT22;4944;52.514;13.192;2022-10-18T10:54:02;16.60;99.90
9810;DHT22;4944;52.514;13.192;2022-10-18T10:56:32;16.70;99.90
9810;DHT22;4944;52.514;13.192;2022-10-18T10:59:07;16.70;99.90
9810;DHT22;4944;52.514;13.192;2022-10-18T11:01:35;16.70;99.90
9810;DHT22;4944;52.514;13.192;2022-10-18T11:04:23;16.70;99.90
9810;DHT22;4944;52.514;13.192;2022-10-18T11:06:55;16.70;99.90
9810;DHT22;4944;52.514;13.192;2022-10-18T11:09:43;16.70;99.90
9810;DHT22;4944;52.514;13.192;2022-10-18T11:12:35;16.70;99.90
9810;DHT22;4944;52.514;13.192;2022-10-18T11:15:17;16.80;99.90
9810;DHT22;4944;52.514;13.192;2022-10-18T11:17:50;16.80;99.90
9810;DHT22;4944;52.514;13.192;2022-10-18T11:20:25;16.80;99.90
9810;DHT22;4944;52.514;13.192;2022-10-18T11:22:58;16.80;99.90
9810;DHT22;4944;52.514;13.192;2022-10-18T11:25:43;16.80;99.90
9810;DHT22;4944;52.514;13.192;2022-10-18T11:28:21;16.80;99.90
9810;DHT22;4944;52.514;13.192;2022-10-18T11:31:03;16.80;99.90
9810;DHT22;4944;52.514;13.192;2022-10-18T11:33:44;16.70;99.90
9810;DHT22;4944;52.514;13.192;2022-10-18T11:36:17;16.70;99.90
9810;DHT22;4944;52.514;13.192;2022-10-18T11:38:51;16.70;99.90
9810;DHT22;4944;52.514;13.192;2022-10-18T11:41:30;16.60;99.90
9810;DHT22;4944;52.514;13.192;2022-10-18T11:44:00;16.60;99.90
9810;DHT22;4944;52.514;13.192;2022-10-18T11:46:40;16.60;99.90
9810;DHT22;4944;52.514;13.192;2022-10-18T11:49:28;16.60;99.90
9810;DHT22;4944;52.514;13.192;2022-10-18T11:52:05;16.70;99.90
9810;DHT22;4944;52.514;13.192;2022-10-18T11:54:49;16.70;99.90
9810;DHT22;4944;52.514;13.192;2022-10-18T11:57:29;16.70;99.90
9810;DHT22;4944;52.514;13.192;2022-10-18T12:00:10;16.70;99.90
9810;DHT22;4944;52.514;13.192;2022-10-18T12:02:53;16.70;99.90
9810;DHT22;4944;52.514;13.192;2022-10-18T12:05:23;16.60;99.90
9810;DHT22;4944;52.514;13.192;2022-10-18T12:07:54;16.50;99.90
9810;DHT22;4944;52.514;13.192;2022-10-18T12:10:23;16.40;99.90
9810;DHT22;4944;52.514;13.192;2022-10-18T12:12:52;16.40;99.90
9810;DHT22;4944;52.514;13.192;2022-10-18T12:15:26;16.30;99.90
9810;DHT22;4944;52.514;13.192;2022-10-18T12:17:55;16.40;99.90
9810;DHT22;4944;52.514;13.192;2022-10-18T12:20:26;16.30;99.90
9810;DHT22;4944;52.514;13.192;2022-10-18T12:22:58;16.30;99.90
9810;DHT22;4944;52.514;13.192;2022-10-18T12:25:27;16.30;99.90
9810;DHT22;4944;52.514;13.192;2022-10-18T12:28:02;16.30;99.90
9810;DHT22;4944;52.514;13.192;2022-10-18T12:30:39;16.40;99.90
9810;DHT22;4944;52.514;13.192;2022-10-18T12:33:10;16.50;99.90
9810;DHT22;4944;52.514;13.192;2022-10-18T12:35:45;16.50;99.90
9810;DHT22;4944;52.514;13.192;2022-10-18T12:38:19;16.50;99.90
9810;DHT22;4944;52.514;13.192;2022-10-18T12:40:48;16.40;99.90
9810;DHT22;4944;52.514;13.192;2022-10-18T12:43:21;16.50;99.90
9810;DHT22;4944;52.514;13.192;2022-10-18T12:45:52;16.40;99.90
9810;DHT22;4944;52.514;13.192;2022-10-18T12:48:32;16.40;99.90
9810;DHT22;4944;52.514;13.192;2022-10-18T12:51:04;16.50;99.90
9810;DHT22;4944;52.514;13.192;2022-10-18T12:53:32;16.40;99.90
9810;DHT22;4944;52.514;13.192;2022-10-18T13:02:29;16.50;99.90
9810;DHT22;4944;52.514;13.192;2022-10-18T13:04:57;16.50;99.90
9810;DHT22;4944;52.514;13.192;2022-10-18T13:07:39;16.50;99.90
9810;DHT22;4944;52.514;13.192;2022-10-18T13:16:25;16.60;99.90
9810;DHT22;4944;52.514;13.192;2022-10-18T13:18:57;16.60;99.90
9810;DHT22;4944;52.514;13.192;2022-10-18T13:21:33;16.70;99.90
9810;DHT22;4944;52.514;13.192;2022-10-18T13:24:17;16.80;99.90
9810;DHT22;4944;52.514;13.192;2022-10-18T13:26:55;16.80;99.90
9810;DHT22;4944;52.514;13.192;2022-10-18T13:29:44;16.90;99.90
9810;DHT22;4944;52.514;13.192;2022-10-18T13:32:22;17.00;99.90
9810;DHT22;4944;52.514;13.192;2022-10-18T13:34:51;17.00;99.90
9810;DHT22;4944;52.514;13.192;2022-10-18T13:37:20;16.90;99.90
9810;DHT22;4944;52.514;13.192;2022-10-18T13:39:49;16.90;99.90
9810;DHT22;4944;52.514;13.192;2022-10-18T13:42:19;17.20;99.90
9810;DHT22;4944;52.514;13.192;2022-10-18T13:44:46;17.40;99.90
9810;DHT22;4944;52.514;13.192;2022-10-18T13:47:14;17.60;99.90
9810;DHT22;4944;52.514;13.192;2022-10-18T13:49:53;17.70;99.90
9810;DHT22;4944;52.514;13.192;2022-10-18T13:52:27;17.60;99.90
9810;DHT22;4944;52.514;13.192;2022-10-18T13:55:12;17.60;99.90
9810;DHT22;4944;52.514;13.192;2022-10-18T13:57:46;17.40;99.90
9810;DHT22;4944;52.514;13.192;2022-10-18T14:00:34;17.30;99.90
9810;DHT22;4944;52.514;13.192;2022-10-18T14:03:23;17.20;99.90
9810;DHT22;4944;52.514;13.192;2022-10-18T14:06:02;17.40;99.90
9810;DHT22;4944;52.514;13.192;2022-10-18T14:08:34;17.50;99.90
9810;DHT22;4944;52.514;13.192;2022-10-18T14:11:04;17.60;99.90
9810;DHT22;4944;52.514;13.192;2022-10-18T14:13:38;17.70;99.90
9810;DHT22;4944;52.514;13.192;2022-10-18T14:16:25;17.70;99.90
9810;DHT22;4944;52.514;13.192;2022-10-18T14:18:57;17.60;99.90
9810;DHT22;4944;52.514;13.192;2022-10-18T14:21:33;17.70;99.90
9810;DHT22;4944;52.514;13.192;2022-10-18T14:24:00;18.00;99.90
9810;DHT22;4944;52.514;13.192;2022-10-18T14:26:28;18.00;99.90
9810;DHT22;4944;52.514;13.192;2022-10-18T14:29:02;18.00;99.90
9810;DHT22;4944;52.514;13.192;2022-10-18T14:31:29;18.20;99.90
9810;DHT22;4944;52.514;13.192;2022-10-18T14:33:59;18.20;99.90
9810;DHT22;4944;52.514;13.192;2022-10-18T14:36:32;18.10;99.90
9810;DHT22;4944;52.514;13.192;2022-10-18T14:39:03;18.00;99.90
9810;DHT22;4944;52.514;13.192;2022-10-18T14:41:32;18.20;99.90
9810;DHT22;4944;52.514;13.192;2022-10-18T14:44:15;18.40;99.90
9810;DHT22;4944;52.514;13.192;2022-10-18T14:46:44;18.40;99.90
9810;DHT22;4944;52.514;13.192;2022-10-18T14:49:12;18.30;99.90
9810;DHT22;4944;52.514;13.192;2022-10-18T14:51:42;18.40;99.90
9810;DHT22;4944;52.514;13.192;2022-10-18T14:54:13;18.60;99.90
9810;DHT22;4944;52.514;13.192;2022-10-18T14:56:41;18.60;99.90
9810;DHT22;4944;52.514;13.192;2022-10-18T14:59:14;18.50;99.90
9810;DHT22;4944;52.514;13.192;2022-10-18T15:01:50;18.50;99.90
9810;DHT22;4944;52.514;13.192;2022-10-18T15:04:18;18.60;99.90
9810;DHT22;4944;52.514;13.192;2022-10-18T15:06:47;18.50;99.90
9810;DHT22;4944;52.514;13.192;2022-10-18T15:09:19;18.40;99.90
9810;DHT22;4944;52.514;13.192;2022-10-18T15:11:46;18.30;99.90
9810;DHT22;4944;52.514;13.192;2022-10-18T15:14:16;18.20;99.90
9810;DHT22;4944;52.514;13.192;2022-10-18T15:16:43;18.10;99.90
9810;DHT22;4944;52.514;13.192;2022-10-18T15:19:27;18.00;99.90
9810;DHT22;4944;52.514;13.192;2022-10-18T15:21:57;17.90;99.90
9810;DHT22;4944;52.514;13.192;2022-10-18T15:24:30;17.70;99.90
9810;DHT22;4944;52.514;13.192;2022-10-18T15:27:02;17.50;99.90
9810;DHT22;4944;52.514;13.192;2022-10-18T15:29:33;17.50;99.90
9810;DHT22;4944;52.514;13.192;2022-10-18T15:32:13;17.30;99.90
9810;DHT22;4944;52.514;13.192;2022-10-18T15:34:40;17.30;99.90
9810;DHT22;4944;52.514;13.192;2022-10-18T15:37:22;17.30;99.90
9810;DHT22;4944;52.514;13.192;2022-10-18T15:42:54;17.10;99.90
9810;DHT22;4944;52.514;13.192;2022-10-18T15:45:34;16.90;99.90
9810;DHT22;4944;52.514;13.192;2022-10-18T15:48:17;16.80;99.90
9810;DHT22;4944;52.514;13.192;2022-10-18T15:50:46;16.80;99.90
9810;DHT22;4944;52.514;13.192;2022-10-18T15:53:31;16.60;99.90
9810;DHT22;4944;52.514;13.192;2022-10-18T15:56:00;16.60;99.90
9810;DHT22;4944;52.514;13.192;2022-10-18T15:58:29;16.50;99.90
9810;DHT22;4944;52.514;13.192;2022-10-18T16:01:02;16.60;99.90
9810;DHT22;4944;52.514;13.192;2022-10-18T16:03:32;16.60;99.90
9810;DHT22;4944;52.514;13.192;2022-10-18T16:06:04;16.70;99.90
9810;DHT22;4944;52.514;13.192;2022-10-18T16:08:37;16.70;99.90
9810;DHT22;4944;52.514;13.192;2022-10-18T16:11:06;16.70;99.90
9810;DHT22;4944;52.514;13.192;2022-10-18T16:13:32;16.70;99.90
9810;DHT22;4944;52.514;13.192;2022-10-18T16:15:59;16.60;99.90
9810;DHT22;4944;52.514;13.192;2022-10-18T16:18:26;16.70;99.90
9810;DHT22;4944;52.514;13.192;2022-10-18T16:20:53;16.60;99.90
9810;DHT22;4944;52.514;13.192;2022-10-18T16:23:21;16.60;99.90